sensor_id;sensor_type;location;lat;lon;timestamp;temperature;humidity
10702;DHT22;5402;50.004;8.246;2023-04-01T00:00:47;10.50;99.90
10702;DHT22;5402;50.004;8.246;2023-04-01T00:03:15;10.40;99.90
10702;DHT22;5402;50.004;8.246;2023-04-01T00:05:42;10.40;99.90
10702;DHT22;5402;50.004;8.246;2023-04-01T00:08:09;10.40;99.90
10702;DHT22;5402;50.004;8.246;2023-04-01T00:10:36;10.50;99.90
10702;DHT22;5402;50.004;8.246;2023-04-01T00:13:03;10.50;99.90
10702;DHT22;5402;50.004;8.246;2023-04-01T00:15:30;10.40;99.90
10702;DHT22;5402;50.004;8.246;2023-04-01T00:17:57;10.50;99.90
10702;DHT22;5402;50.004;8.246;2023-04-01T00:20:25;10.50;99.90
10702;DHT22;5402;50.004;8.246;2023-04-01T00:22:52;10.50;99.90
10702;DHT22;5402;50.004;8.246;2023-04-01T00:25:19;10.50;99.90
10702;DHT22;5402;50.004;8.246;2023-04-01T00:27:46;10.50;99.90
10702;DHT22;5402;50.004;8.246;2023-04-01T00:30:13;10.40;99.90
10702;DHT22;5402;50.004;8.246;2023-04-01T00:32:40;10.40;99.90
10702;DHT22;5402;50.004;8.246;2023-04-01T00:35:08;10.40;99.90
10702;DHT22;5402;50.004;8.246;2023-04-01T00:37:36;10.40;99.90
10702;DHT22;5402;50.004;8.246;2023-04-01T00:40:06;10.40;99.90
10702;DHT22;5402;50.004;8.246;2023-04-01T00:42:33;10.30;99.90
10702;DHT22;5402;50.004;8.246;2023-04-01T00:45:25;10.30;99.90
10702;DHT22;5402;50.004;8.246;2023-04-01T00:47:52;10.30;99.90
10702;DHT22;5402;50.004;8.246;2023-04-01T00:50:20;10.30;99.90
10702;DHT22;5402;50.004;8.246;2023-04-01T00:52:49;10.30;99.90
10702;DHT22;5402;50.004;8.246;2023-04-01T00:55:17;10.30;99.90
10702;DHT22;5402;50.004;8.246;2023-04-01T00:57:45;10.30;99.90
10702;DHT22;5402;50.004;8.246;2023-04-01T01:00:13;10.20;99.90
10702;DHT22;5402;50.004;8.246;2023-04-01T01:02:41;10.20;99.90
10702;DHT22;5402;50.004;8.246;2023-04-01T01:05:11;10.20;99.90
10702;DHT22;5402;50.004;8.246;2023-04-01T01:07:42;10.20;99.90
10702;DHT22;5402;50.004;8.246;2023-04-01T01:10:17;10.10;99.90
10702;DHT22;5402;50.004;8.246;2023-04-01T01:12:46;10.10;99.90
10702;DHT22;5402;50.004;8.246;2023-04-01T01:15:19;10.10;99.90
10702;DHT22;5402;50.004;8.246;2023-04-01T01:17:54;10.10;99.90
10702;DHT22;5402;50.004;8.246;2023-04-01T01:20:56;10.10;99.90
10702;DHT22;5402;50.004;8.246;2023-04-01T01:23:53;10.10;99.90
10702;DHT22;5402;50.004;8.246;2023-04-01T01:29:35;10.10;99.90
10702;DHT22;5402;50.004;8.246;2023-04-01T01:32:16;10.10;99.90
10702;DHT22;5402;50.004;8.246;2023-04-01T01:34:50;10.20;99.90
10702;DHT22;5402;50.004;8.246;2023-04-01T01:37:24;10.20;99.90
10702;DHT22;5402;50.004;8.246;2023-04-01T01:39:55;10.20;99.90
10702;DHT22;5402;50.004;8.246;2023-04-01T01:42:24;10.20;99.90
10702;DHT22;5402;50.004;8.246;2023-04-01T01:44:53;10.20;99.90
10702;DHT22;5402;50.004;8.246;2023-04-01T01:47:23;10.20;99.90
10702;DHT22;5402;50.004;8.246;2023-04-01T01:49:53;10.30;99.90
10702;DHT22;5402;50.004;8.246;2023-04-01T01:52:23;10.40;99.90
10702;DHT22;5402;50.004;8.246;2023-04-01T01:54:51;10.30;99.90
10702;DHT22;5402;50.004;8.246;2023-04-01T01:57:21;10.30;99.90
10702;DHT22;5402;50.004;8.246;2023-04-01T01:59:50;10.20;99.90
10702;DHT22;5402;50.004;8.246;2023-04-01T02:02:18;10.20;99.90
10702;DHT22;5402;50.004;8.246;2023-04-01T02:04:46;10.20;99.90
10702;DHT22;5402;50.004;8.246;2023-04-01T02:07:16;10.10;99.90
10702;DHT22;5402;50.004;8.246;2023-04-01T02:09:46;10.10;99.90
10702;DHT22;5402;50.004;8.246;2023-04-01T02:12:15;10.20;99.90
10702;DHT22;5402;50.004;8.246;2023-04-01T02:14:47;10.10;99.90
10702;DHT22;5402;50.004;8.246;2023-04-01T02:17:19;10.10;99.90
10702;DHT22;5402;50.004;8.246;2023-04-01T02:19:51;10.10;99.90
10702;DHT22;5402;50.004;8.246;2023-04-01T02:22:21;10.00;99.90
10702;DHT22;5402;50.004;8.246;2023-04-01T02:24:50;10.00;99.90
10702;DHT22;5402;50.004;8.246;2023-04-01T02:27:20;10.00;99.90
10702;DHT22;5402;50.004;8.246;2023-04-01T02:29:47;10.00;99.90
10702;DHT22;5402;50.004;8.246;2023-04-01T02:32:14;10.00;99.90
10702;DHT22;5402;50.004;8.246;2023-04-01T02:34:42;10.00;99.90
10702;DHT22;5402;50.004;8.246;2023-04-01T02:37:10;10.00;99.90
10702;DHT22;5402;50.004;8.246;2023-04-01T02:39:37;10.00;99.90
10702;DHT22;5402;50.004;8.246;2023-04-01T02:42:06;10.00;99.90
10702;DHT22;5402;50.004;8.246;2023-04-01T02:44:32;10.00;99.90
10702;DHT22;5402;50.004;8.246;2023-04-01T02:46:59;10.00;99.90
10702;DHT22;5402;50.004;8.246;2023-04-01T02:49:26;10.00;99.90
10702;DHT22;5402;50.004;8.246;2023-04-01T02:51:52;10.00;99.90
10702;DHT22;5402;50.004;8.246;2023-04-01T02:54:19;10.00;99.90
10702;DHT22;5402;50.004;8.246;2023-04-01T02:56:46;10.00;99.90
10702;DHT22;5402;50.004;8.246;2023-04-01T02:59:14;10.00;99.90
10702;DHT22;5402;50.004;8.246;2023-04-01T03:01:41;10.00;99.90
10702;DHT22;5402;50.004;8.246;2023-04-01T03:04:08;10.00;99.90
10702;DHT22;5402;50.004;8.246;2023-04-01T03:06:34;10.00;99.90
10702;DHT22;5402;50.004;8.246;2023-04-01T03:09:01;9.90;99.90
10702;DHT22;5402;50.004;8.246;2023-04-01T03:11:28;9.90;99.90
10702;DHT22;5402;50.004;8.246;2023-04-01T03:13:55;9.90;99.90
10702;DHT22;5402;50.004;8.246;2023-04-01T03:16:23;9.90;99.90
10702;DHT22;5402;50.004;8.246;2023-04-01T03:18:50;10.00;99.90
10702;DHT22;5402;50.004;8.246;2023-04-01T03:21:20;10.10;99.90
10702;DHT22;5402;50.004;8.246;2023-04-01T03:23:47;10.00;99.90
10702;DHT22;5402;50.004;8.246;2023-04-01T03:26:14;10.10;99.90
10702;DHT22;5402;50.004;8.246;2023-04-01T03:28:41;10.00;99.90
10702;DHT22;5402;50.004;8.246;2023-04-01T03:31:07;10.00;99.90
10702;DHT22;5402;50.004;8.246;2023-04-01T03:33:36;10.00;99.90
10702;DHT22;5402;50.004;8.246;2023-04-01T03:36:02;10.00;99.90
10702;DHT22;5402;50.004;8.246;2023-04-01T03:38:31;10.00;99.90
10702;DHT22;5402;50.004;8.246;2023-04-01T03:40:58;10.00;99.90
10702;DHT22;5402;50.004;8.246;2023-04-01T03:43:25;10.00;99.90
10702;DHT22;5402;50.004;8.246;2023-04-01T03:45:52;9.90;99.90
10702;DHT22;5402;50.004;8.246;2023-04-01T03:48:20;9.90;99.90
10702;DHT22;5402;50.004;8.246;2023-04-01T03:50:48;10.10;99.90
10702;DHT22;5402;50.004;8.246;2023-04-01T03:53:14;10.00;99.90
10702;DHT22;5402;50.004;8.246;2023-04-01T03:55:41;10.00;99.90
10702;DHT22;5402;50.004;8.246;2023-04-01T03:58:08;10.00;99.90
10702;DHT22;5402;50.004;8.246;2023-04-01T04:00:35;10.00;99.90
10702;DHT22;5402;50.004;8.246;2023-04-01T04:03:02;10.00;99.90
10702;DHT22;5402;50.004;8.246;2023-04-01T04:05:29;10.00;99.90
10702;DHT22;5402;50.004;8.246;2023-04-01T04:07:57;10.10;99.90
10702;DHT22;5402;50.004;8.246;2023-04-01T04:10:24;10.10;99.90
10702;DHT22;5402;50.004;8.246;2023-04-01T04:12:51;10.10;99.90
10702;DHT22;5402;50.004;8.246;2023-04-01T04:15:18;10.10;99.90
10702;DHT22;5402;50.004;8.246;2023-04-01T04:17:45;10.10;99.90
10702;DHT22;5402;50.004;8.246;2023-04-01T04:20:12;10.10;99.90
10702;DHT22;5402;50.004;8.246;2023-04-01T04:22:39;10.10;99.90
10702;DHT22;5402;50.004;8.246;2023-04-01T04:25:08;10.10;99.90
10702;DHT22;5402;50.004;8.246;2023-04-01T04:27:35;10.10;99.90
10702;DHT22;5402;50.004;8.246;2023-04-01T04:30:02;10.00;99.90
10702;DHT22;5402;50.004;8.246;2023-04-01T04:32:29;10.00;99.90
10702;DHT22;5402;50.004;8.246;2023-04-01T04:34:56;10.00;99.90
10702;DHT22;5402;50.004;8.246;2023-04-01T04:37:22;10.00;99.90
10702;DHT22;5402;50.004;8.246;2023-04-01T04:39:51;10.00;99.90
10702;DHT22;5402;50.004;8.246;2023-04-01T04:42:19;9.90;99.90
10702;DHT22;5402;50.004;8.246;2023-04-01T04:44:46;9.90;99.90
10702;DHT22;5402;50.004;8.246;2023-04-01T04:47:12;9.90;99.90
10702;DHT22;5402;50.004;8.246;2023-04-01T04:49:39;9.90;99.90
10702;DHT22;5402;50.004;8.246;2023-04-01T04:52:06;9.90;99.90
10702;DHT22;5402;50.004;8.246;2023-04-01T04:54:33;9.90;99.90
10702;DHT22;5402;50.004;8.246;2023-04-01T04:56:59;9.90;99.90
10702;DHT22;5402;50.004;8.246;2023-04-01T04:59:27;9.90;99.90
10702;DHT22;5402;50.004;8.246;2023-04-01T05:01:54;9.90;99.90
10702;DHT22;5402;50.004;8.246;2023-04-01T05:04:21;9.90;99.90
10702;DHT22;5402;50.004;8.246;2023-04-01T05:06:47;9.90;99.90
10702;DHT22;5402;50.004;8.246;2023-04-01T05:09:14;9.90;99.90
10702;DHT22;5402;50.004;8.246;2023-04-01T05:11:41;9.90;99.90
10702;DHT22;5402;50.004;8.246;2023-04-01T05:14:12;9.90;99.90
10702;DHT22;5402;50.004;8.246;2023-04-01T05:16:40;9.90;99.90
10702;DHT22;5402;50.004;8.246;2023-04-01T05:19:07;9.90;99.90
10702;DHT22;5402;50.004;8.246;2023-04-01T05:21:33;9.90;99.90
10702;DHT22;5402;50.004;8.246;2023-04-01T05:24:00;9.90;99.90
10702;DHT22;5402;50.004;8.246;2023-04-01T05:26:27;9.90;99.90
10702;DHT22;5402;50.004;8.246;2023-04-01T05:28:53;9.90;99.90
10702;DHT22;5402;50.004;8.246;2023-04-01T05:31:20;9.90;99.90
10702;DHT22;5402;50.004;8.246;2023-04-01T05:33:50;9.80;99.90
10702;DHT22;5402;50.004;8.246;2023-04-01T05:36:17;9.90;99.90
10702;DHT22;5402;50.004;8.246;2023-04-01T05:38:44;9.80;99.90
10702;DHT22;5402;50.004;8.246;2023-04-01T05:41:12;9.80;99.90
10702;DHT22;5402;50.004;8.246;2023-04-01T05:43:40;9.80;99.90
10702;DHT22;5402;50.004;8.246;2023-04-01T05:46:07;9.80;99.90
10702;DHT22;5402;50.004;8.246;2023-04-01T05:48:34;9.90;99.90
10702;DHT22;5402;50.004;8.246;2023-04-01T05:51:03;9.90;99.90
10702;DHT22;5402;50.004;8.246;2023-04-01T05:53:30;9.90;99.90
10702;DHT22;5402;50.004;8.246;2023-04-01T05:55:56;9.90;99.90
10702;DHT22;5402;50.004;8.246;2023-04-01T05:58:23;9.90;99.90
10702;DHT22;5402;50.004;8.246;2023-04-01T06:00:50;9.90;99.90
10702;DHT22;5402;50.004;8.246;2023-04-01T06:03:17;9.90;99.90
10702;DHT22;5402;50.004;8.246;2023-04-01T06:05:44;9.90;99.90
10702;DHT22;5402;50.004;8.246;2023-04-01T06:08:13;9.90;99.90
10702;DHT22;5402;50.004;8.246;2023-04-01T06:10:50;9.90;99.90
10702;DHT22;5402;50.004;8.246;2023-04-01T06:13:29;9.90;99.90
10702;DHT22;5402;50.004;8.246;2023-04-01T06:16:07;9.90;99.90
10702;DHT22;5402;50.004;8.246;2023-04-01T06:18:53;10.00;99.90
10702;DHT22;5402;50.004;8.246;2023-04-01T06:21:42;9.90;99.90
10702;DHT22;5402;50.004;8.246;2023-04-01T06:24:26;9.90;99.90
10702;DHT22;5402;50.004;8.246;2023-04-01T06:27:04;9.90;99.90
10702;DHT22;5402;50.004;8.246;2023-04-01T06:29:47;9.90;99.90
10702;DHT22;5402;50.004;8.246;2023-04-01T06:32:30;9.90;99.90
10702;DHT22;5402;50.004;8.246;2023-04-01T06:35:12;9.90;99.90
10702;DHT22;5402;50.004;8.246;2023-04-01T06:38:07;9.90;99.90
10702;DHT22;5402;50.004;8.246;2023-04-01T06:41:04;9.90;99.90
10702;DHT22;5402;50.004;8.246;2023-04-01T06:43:43;9.90;99.90
10702;DHT22;5402;50.004;8.246;2023-04-01T06:46:19;9.90;99.90
10702;DHT22;5402;50.004;8.246;2023-04-01T06:49:03;9.90;99.90
10702;DHT22;5402;50.004;8.246;2023-04-01T06:51:36;9.90;99.90
10702;DHT22;5402;50.004;8.246;2023-04-01T06:54:10;9.90;99.90
10702;DHT22;5402;50.004;8.246;2023-04-01T06:56:41;10.00;99.90
10702;DHT22;5402;50.004;8.246;2023-04-01T06:59:11;10.00;99.90
10702;DHT22;5402;50.004;8.246;2023-04-01T07:01:41;10.00;99.90
10702;DHT22;5402;50.004;8.246;2023-04-01T07:04:13;10.00;99.90
10702;DHT22;5402;50.004;8.246;2023-04-01T07:06:45;10.00;99.90
10702;DHT22;5402;50.004;8.246;2023-04-01T07:09:18;10.20;99.90
10702;DHT22;5402;50.004;8.246;2023-04-01T07:11:47;10.20;99.90
10702;DHT22;5402;50.004;8.246;2023-04-01T07:14:17;10.20;99.90
10702;DHT22;5402;50.004;8.246;2023-04-01T07:16:48;10.10;99.90
10702;DHT22;5402;50.004;8.246;2023-04-01T07:19:22;10.10;99.90
10702;DHT22;5402;50.004;8.246;2023-04-01T07:21:55;10.10;99.90
10702;DHT22;5402;50.004;8.246;2023-04-01T07:24:26;10.20;99.90
10702;DHT22;5402;50.004;8.246;2023-04-01T07:26:56;10.20;99.90
10702;DHT22;5402;50.004;8.246;2023-04-01T07:29:23;10.20;99.90
10702;DHT22;5402;50.004;8.246;2023-04-01T07:34:50;10.30;99.90
10702;DHT22;5402;50.004;8.246;2023-04-01T07:37:22;10.40;99.90
10702;DHT22;5402;50.004;8.246;2023-04-01T07:39:59;10.60;99.90
10702;DHT22;5402;50.004;8.246;2023-04-01T07:42:39;10.70;99.90
10702;DHT22;5402;50.004;8.246;2023-04-01T07:45:13;10.70;99.90
10702;DHT22;5402;50.004;8.246;2023-04-01T07:47:53;10.80;99.90
10702;DHT22;5402;50.004;8.246;2023-04-01T07:50:27;11.00;99.90
10702;DHT22;5402;50.004;8.246;2023-04-01T07:53:02;11.10;99.90
10702;DHT22;5402;50.004;8.246;2023-04-01T07:55:34;11.10;99.90
10702;DHT22;5402;50.004;8.246;2023-04-01T07:58:08;11.10;99.90
10702;DHT22;5402;50.004;8.246;2023-04-01T08:00:42;11.00;99.90
10702;DHT22;5402;50.004;8.246;2023-04-01T08:03:31;11.00;99.90
10702;DHT22;5402;50.004;8.246;2023-04-01T08:06:03;10.90;99.90
10702;DHT22;5402;50.004;8.246;2023-04-01T08:08:42;10.90;99.90
10702;DHT22;5402;50.004;8.246;2023-04-01T08:11:20;10.90;99.90
10702;DHT22;5402;50.004;8.246;2023-04-01T08:13:56;10.80;99.90
10702;DHT22;5402;50.004;8.246;2023-04-01T08:16:32;10.80;99.90
10702;DHT22;5402;50.004;8.246;2023-04-01T08:19:06;10.80;99.90
10702;DHT22;5402;50.004;8.246;2023-04-01T08:21:41;10.80;99.90
10702;DHT22;5402;50.004;8.246;2023-04-01T08:24:16;10.70;99.90
10702;DHT22;5402;50.004;8.246;2023-04-01T08:26:47;10.70;99.90
10702;DHT22;5402;50.004;8.246;2023-04-01T08:29:19;10.70;99.90
10702;DHT22;5402;50.004;8.246;2023-04-01T08:31:51;10.60;99.90
10702;DHT22;5402;50.004;8.246;2023-04-01T08:34:21;10.60;99.90
10702;DHT22;5402;50.004;8.246;2023-04-01T08:36:51;10.70;99.90
10702;DHT22;5402;50.004;8.246;2023-04-01T08:39:27;10.70;99.90
10702;DHT22;5402;50.004;8.246;2023-04-01T08:42:18;10.60;99.90
10702;DHT22;5402;50.004;8.246;2023-04-01T08:45:43;10.60;99.90
10702;DHT22;5402;50.004;8.246;2023-04-01T08:48:36;10.70;99.90
10702;DHT22;5402;50.004;8.246;2023-04-01T08:51:31;10.70;99.90
10702;DHT22;5402;50.004;8.246;2023-04-01T08:54:18;10.80;99.90
10702;DHT22;5402;50.004;8.246;2023-04-01T08:56:58;10.80;99.90
10702;DHT22;5402;50.004;8.246;2023-04-01T08:59:42;10.80;99.90
10702;DHT22;5402;50.004;8.246;2023-04-01T09:02:30;10.80;99.90
10702;DHT22;5402;50.004;8.246;2023-04-01T09:08:20;10.70;99.90
10702;DHT22;5402;50.004;8.246;2023-04-01T09:11:12;10.70;99.90
10702;DHT22;5402;50.004;8.246;2023-04-01T09:14:06;10.60;99.90
10702;DHT22;5402;50.004;8.246;2023-04-01T09:17:01;10.60;99.90
10702;DHT22;5402;50.004;8.246;2023-04-01T09:19:45;10.60;99.90
10702;DHT22;5402;50.004;8.246;2023-04-01T09:22:24;10.60;99.90
10702;DHT22;5402;50.004;8.246;2023-04-01T09:25:23;10.60;99.90
10702;DHT22;5402;50.004;8.246;2023-04-01T09:27:56;10.60;99.90
10702;DHT22;5402;50.004;8.246;2023-04-01T09:30:52;10.60;99.90
10702;DHT22;5402;50.004;8.246;2023-04-01T09:36:45;10.60;99.90
10702;DHT22;5402;50.004;8.246;2023-04-01T09:39:25;10.70;99.90
10702;DHT22;5402;50.004;8.246;2023-04-01T09:42:24;10.70;99.90
10702;DHT22;5402;50.004;8.246;2023-04-01T09:44:58;10.70;99.90
10702;DHT22;5402;50.004;8.246;2023-04-01T09:47:41;11.00;99.90
10702;DHT22;5402;50.004;8.246;2023-04-01T09:50:21;10.90;99.90
10702;DHT22;5402;50.004;8.246;2023-04-01T09:53:05;11.00;99.90
10702;DHT22;5402;50.004;8.246;2023-04-01T09:59:15;11.20;99.90
10702;DHT22;5402;50.004;8.246;2023-04-01T10:01:57;11.30;99.90
10702;DHT22;5402;50.004;8.246;2023-04-01T10:04:54;11.40;99.90
10702;DHT22;5402;50.004;8.246;2023-04-01T10:07:52;11.20;99.90
10702;DHT22;5402;50.004;8.246;2023-04-01T10:20:00;11.10;99.90
10702;DHT22;5402;50.004;8.246;2023-04-01T10:25:57;11.00;99.90
10702;DHT22;5402;50.004;8.246;2023-04-01T10:32:02;11.10;99.90
10702;DHT22;5402;50.004;8.246;2023-04-01T10:35:04;11.20;99.90
10702;DHT22;5402;50.004;8.246;2023-04-01T10:40:53;11.30;99.90
10702;DHT22;5402;50.004;8.246;2023-04-01T10:43:50;11.40;99.90
10702;DHT22;5402;50.004;8.246;2023-04-01T10:49:43;11.50;99.90
10702;DHT22;5402;50.004;8.246;2023-04-01T10:55:25;11.60;99.90
10702;DHT22;5402;50.004;8.246;2023-04-01T11:02:00;11.90;99.90
10702;DHT22;5402;50.004;8.246;2023-04-01T11:05:05;11.80;99.90
10702;DHT22;5402;50.004;8.246;2023-04-01T11:08:14;12.00;99.90
10702;DHT22;5402;50.004;8.246;2023-04-01T11:11:20;12.10;99.90
10702;DHT22;5402;50.004;8.246;2023-04-01T11:14:13;12.20;99.90
10702;DHT22;5402;50.004;8.246;2023-04-01T11:17:36;12.10;99.90
10702;DHT22;5402;50.004;8.246;2023-04-01T11:20:25;12.00;99.90
10702;DHT22;5402;50.004;8.246;2023-04-01T11:23:05;11.80;99.90
10702;DHT22;5402;50.004;8.246;2023-04-01T11:25:52;12.10;99.90
10702;DHT22;5402;50.004;8.246;2023-04-01T11:31:37;11.80;99.90
10702;DHT22;5402;50.004;8.246;2023-04-01T11:34:14;11.80;99.90
10702;DHT22;5402;50.004;8.246;2023-04-01T11:36:49;11.90;99.90
10702;DHT22;5402;50.004;8.246;2023-04-01T11:39:25;12.00;99.90
10702;DHT22;5402;50.004;8.246;2023-04-01T11:42:04;12.00;99.90
10702;DHT22;5402;50.004;8.246;2023-04-01T11:44:40;12.00;99.90
10702;DHT22;5402;50.004;8.246;2023-04-01T11:47:22;11.90;99.90
10702;DHT22;5402;50.004;8.246;2023-04-01T11:50:03;11.90;99.90
10702;DHT22;5402;50.004;8.246;2023-04-01T11:53:02;11.90;99.90
10702;DHT22;5402;50.004;8.246;2023-04-01T11:55:38;11.80;99.90
10702;DHT22;5402;50.004;8.246;2023-04-01T11:58:42;11.80;99.90
10702;DHT22;5402;50.004;8.246;2023-04-01T12:01:36;11.70;99.90
10702;DHT22;5402;50.004;8.246;2023-04-01T12:07:50;11.60;99.90
10702;DHT22;5402;50.004;8.246;2023-04-01T12:10:24;11.60;99.90
10702;DHT22;5402;50.004;8.246;2023-04-01T12:13:01;11.60;99.90
10702;DHT22;5402;50.004;8.246;2023-04-01T12:15:36;11.80;99.90
10702;DHT22;5402;50.004;8.246;2023-04-01T12:18:16;11.90;99.90
10702;DHT22;5402;50.004;8.246;2023-04-01T12:20:50;11.80;99.90
10702;DHT22;5402;50.004;8.246;2023-04-01T12:23:38;11.80;99.90
10702;DHT22;5402;50.004;8.246;2023-04-01T12:26:30;11.90;99.90
10702;DHT22;5402;50.004;8.246;2023-04-01T12:29:08;12.00;99.90
10702;DHT22;5402;50.004;8.246;2023-04-01T12:31:50;12.30;99.90
10702;DHT22;5402;50.004;8.246;2023-04-01T12:34:32;12.40;99.90
10702;DHT22;5402;50.004;8.246;2023-04-01T12:37:09;12.40;99.90
10702;DHT22;5402;50.004;8.246;2023-04-01T12:39:51;12.30;99.90
10702;DHT22;5402;50.004;8.246;2023-04-01T12:42:44;12.10;99.90
10702;DHT22;5402;50.004;8.246;2023-04-01T12:45:31;11.80;99.90
10702;DHT22;5402;50.004;8.246;2023-04-01T12:48:10;11.70;99.90
10702;DHT22;5402;50.004;8.246;2023-04-01T12:54:02;11.60;99.90
10702;DHT22;5402;50.004;8.246;2023-04-01T12:56:41;11.50;99.90
10702;DHT22;5402;50.004;8.246;2023-04-01T12:59:44;11.40;99.90
10702;DHT22;5402;50.004;8.246;2023-04-01T13:02:17;11.70;99.90
10702;DHT22;5402;50.004;8.246;2023-04-01T13:05:01;11.40;99.90
10702;DHT22;5402;50.004;8.246;2023-04-01T13:07:50;11.40;99.90
10702;DHT22;5402;50.004;8.246;2023-04-01T13:10:27;11.40;99.90
10702;DHT22;5402;50.004;8.246;2023-04-01T13:13:18;11.40;99.90
10702;DHT22;5402;50.004;8.246;2023-04-01T13:15:52;11.40;99.90
10702;DHT22;5402;50.004;8.246;2023-04-01T13:18:28;11.30;99.90
10702;DHT22;5402;50.004;8.246;2023-04-01T13:21:08;11.20;99.90
10702;DHT22;5402;50.004;8.246;2023-04-01T13:23:54;11.40;99.90
10702;DHT22;5402;50.004;8.246;2023-04-01T13:26:27;11.40;99.90
10702;DHT22;5402;50.004;8.246;2023-04-01T13:29:02;11.30;99.90
10702;DHT22;5402;50.004;8.246;2023-04-01T13:31:40;11.30;99.90
10702;DHT22;5402;50.004;8.246;2023-04-01T13:34:30;11.50;99.90
10702;DHT22;5402;50.004;8.246;2023-04-01T13:37:13;11.20;99.90
10702;DHT22;5402;50.004;8.246;2023-04-01T13:42:33;11.30;99.90
10702;DHT22;5402;50.004;8.246;2023-04-01T13:45:03;11.30;99.90
10702;DHT22;5402;50.004;8.246;2023-04-01T13:48:17;11.40;99.90
10702;DHT22;5402;50.004;8.246;2023-04-01T13:51:14;11.40;99.90
10702;DHT22;5402;50.004;8.246;2023-04-01T13:54:12;11.50;99.90
10702;DHT22;5402;50.004;8.246;2023-04-01T13:56:49;11.30;99.90
10702;DHT22;5402;50.004;8.246;2023-04-01T13:59:57;11.30;99.90
10702;DHT22;5402;50.004;8.246;2023-04-01T14:02:45;11.20;99.90
10702;DHT22;5402;50.004;8.246;2023-04-01T14:05:34;11.20;99.90
10702;DHT22;5402;50.004;8.246;2023-04-01T14:08:17;11.10;99.90
10702;DHT22;5402;50.004;8.246;2023-04-01T14:10:52;11.00;99.90
10702;DHT22;5402;50.004;8.246;2023-04-01T14:13:28;11.10;99.90
10702;DHT22;5402;50.004;8.246;2023-04-01T14:16:14;11.00;99.90
10702;DHT22;5402;50.004;8.246;2023-04-01T14:19:11;11.00;99.90
10702;DHT22;5402;50.004;8.246;2023-04-01T14:21:57;11.00;99.90
10702;DHT22;5402;50.004;8.246;2023-04-01T14:24:58;11.00;99.90
10702;DHT22;5402;50.004;8.246;2023-04-01T14:27:37;10.90;99.90
10702;DHT22;5402;50.004;8.246;2023-04-01T14:30:20;10.90;99.90
10702;DHT22;5402;50.004;8.246;2023-04-01T14:32:56;10.90;99.90
10702;DHT22;5402;50.004;8.246;2023-04-01T14:35:34;10.80;99.90
10702;DHT22;5402;50.004;8.246;2023-04-01T14:41:06;10.80;99.90
10702;DHT22;5402;50.004;8.246;2023-04-01T14:44:18;10.80;99.90
10702;DHT22;5402;50.004;8.246;2023-04-01T14:47:11;10.90;99.90
10702;DHT22;5402;50.004;8.246;2023-04-01T14:49:46;11.00;99.90
10702;DHT22;5402;50.004;8.246;2023-04-01T14:52:16;10.90;99.90
10702;DHT22;5402;50.004;8.246;2023-04-01T14:54:46;10.90;99.90
10702;DHT22;5402;50.004;8.246;2023-04-01T14:57:20;10.90;99.90
10702;DHT22;5402;50.004;8.246;2023-04-01T14:59:51;10.90;99.90
10702;DHT22;5402;50.004;8.246;2023-04-01T15:02:45;10.90;99.90
10702;DHT22;5402;50.004;8.246;2023-04-01T15:05:24;10.90;99.90
10702;DHT22;5402;50.004;8.246;2023-04-01T15:16:45;11.40;99.90
10702;DHT22;5402;50.004;8.246;2023-04-01T15:19:24;11.30;99.90
10702;DHT22;5402;50.004;8.246;2023-04-01T15:22:25;11.40;99.90
10702;DHT22;5402;50.004;8.246;2023-04-01T15:25:05;11.50;99.90
10702;DHT22;5402;50.004;8.246;2023-04-01T15:27:39;11.50;99.90
10702;DHT22;5402;50.004;8.246;2023-04-01T15:30:24;11.40;99.90
10702;DHT22;5402;50.004;8.246;2023-04-01T15:33:06;11.40;99.90
10702;DHT22;5402;50.004;8.246;2023-04-01T15:35:44;11.30;99.90
10702;DHT22;5402;50.004;8.246;2023-04-01T15:38:20;11.30;99.90
10702;DHT22;5402;50.004;8.246;2023-04-01T15:40:54;11.30;99.90
10702;DHT22;5402;50.004;8.246;2023-04-01T15:43:32;11.50;99.90
10702;DHT22;5402;50.004;8.246;2023-04-01T15:46:19;11.20;99.90
10702;DHT22;5402;50.004;8.246;2023-04-01T15:49:09;11.10;99.90
10702;DHT22;5402;50.004;8.246;2023-04-01T15:51:47;11.10;99.90
10702;DHT22;5402;50.004;8.246;2023-04-01T15:54:38;11.10;99.90
10702;DHT22;5402;50.004;8.246;2023-04-01T15:57:23;11.20;99.90
10702;DHT22;5402;50.004;8.246;2023-04-01T16:05:56;11.20;99.90
10702;DHT22;5402;50.004;8.246;2023-04-01T16:08:50;11.20;99.90
10702;DHT22;5402;50.004;8.246;2023-04-01T16:11:28;11.30;99.90
10702;DHT22;5402;50.004;8.246;2023-04-01T16:14:07;11.40;99.90
10702;DHT22;5402;50.004;8.246;2023-04-01T16:16:48;11.50;99.90
10702;DHT22;5402;50.004;8.246;2023-04-01T16:19:29;11.40;99.90
10702;DHT22;5402;50.004;8.246;2023-04-01T16:22:01;11.40;99.90
10702;DHT22;5402;50.004;8.246;2023-04-01T16:24:35;11.30;99.90
10702;DHT22;5402;50.004;8.246;2023-04-01T16:27:09;11.30;99.90
10702;DHT22;5402;50.004;8.246;2023-04-01T16:29:43;11.20;99.90
10702;DHT22;5402;50.004;8.246;2023-04-01T16:32:21;11.30;99.90
10702;DHT22;5402;50.004;8.246;2023-04-01T16:35:03;11.20;99.90
10702;DHT22;5402;50.004;8.246;2023-04-01T16:37:34;11.30;99.90
10702;DHT22;5402;50.004;8.246;2023-04-01T16:40:14;11.20;99.90
10702;DHT22;5402;50.004;8.246;2023-04-01T16:42:49;11.20;99.90
10702;DHT22;5402;50.004;8.246;2023-04-01T16:45:25;11.10;99.90
10702;DHT22;5402;50.004;8.246;2023-04-01T16:47:57;11.10;99.90
10702;DHT22;5402;50.004;8.246;2023-04-01T16:50:37;11.10;99.90
10702;DHT22;5402;50.004;8.246;2023-04-01T16:53:14;11.10;99.90
10702;DHT22;5402;50.004;8.246;2023-04-01T16:55:45;11.10;99.90
10702;DHT22;5402;50.004;8.246;2023-04-01T16:58:19;11.10;99.90
10702;DHT22;5402;50.004;8.246;2023-04-01T17:00:49;11.00;99.90
10702;DHT22;5402;50.004;8.246;2023-04-01T17:03:20;11.10;99.90
10702;DHT22;5402;50.004;8.246;2023-04-01T17:05:58;11.00;99.90
10702;DHT22;5402;50.004;8.246;2023-04-01T17:08:36;10.90;99.90
10702;DHT22;5402;50.004;8.246;2023-04-01T17:11:11;10.90;99.90
10702;DHT22;5402;50.004;8.246;2023-04-01T17:13:46;10.90;99.90
10702;DHT22;5402;50.004;8.246;2023-04-01T17:16:36;11.00;99.90
10702;DHT22;5402;50.004;8.246;2023-04-01T17:19:14;10.90;99.90
10702;DHT22;5402;50.004;8.246;2023-04-01T17:21:57;11.20;99.90
10702;DHT22;5402;50.004;8.246;2023-04-01T17:24:35;11.00;99.90
10702;DHT22;5402;50.004;8.246;2023-04-01T17:27:17;11.00;99.90
10702;DHT22;5402;50.004;8.246;2023-04-01T17:30:11;11.10;99.90
10702;DHT22;5402;50.004;8.246;2023-04-01T17:32:51;10.90;99.90
10702;DHT22;5402;50.004;8.246;2023-04-01T17:35:26;10.90;99.90
10702;DHT22;5402;50.004;8.246;2023-04-01T17:38:09;10.90;99.90
10702;DHT22;5402;50.004;8.246;2023-04-01T17:40:48;10.80;99.90
10702;DHT22;5402;50.004;8.246;2023-04-01T17:43:25;10.80;99.90
10702;DHT22;5402;50.004;8.246;2023-04-01T17:45:57;10.70;99.90
10702;DHT22;5402;50.004;8.246;2023-04-01T17:48:37;10.70;99.90
10702;DHT22;5402;50.004;8.246;2023-04-01T17:51:16;10.60;99.90
10702;DHT22;5402;50.004;8.246;2023-04-01T17:53:52;10.60;99.90
10702;DHT22;5402;50.004;8.246;2023-04-01T17:56:37;10.50;99.90
10702;DHT22;5402;50.004;8.246;2023-04-01T17:59:12;10.50;99.90
10702;DHT22;5402;50.004;8.246;2023-04-01T18:01:48;10.50;99.90